Latest Weather Observations for Stenhouse Bay

IDS60801

Issued at 7:01 pm CDT Sunday 24 January 2021 (issued every 10 minutes, with the page automatically refreshed every 10 minutes)

About weather observations | Map of weather stations | Latest weather observations for SA | Other Formats
Station Details ID: 022049 Name: STENHOUSE BAY Lat: -35.28 Lon: 136.94 Height: 42.0 m
Data from the previous 72 hours. | See also: Recent months at Stenhouse Bay
Date/Time
CDT
Temp
°C
App
Temp
°C
Dew
Point
°C
Rel
Hum
%
Delta-T
°C
Wind Press
QNH
hPa
Press
MSL
hPa
Rain since
9am
mm
Dir  Spd
km/h
Gust
km/h
Spd
kts
Gust
kts
24/07:00pm 32.3 31.1 7.9 22 13.6 SE 4 7 2 4 1001.4 1001.3 0.0
24/06:30pm 32.2 30.4 7.1 21 13.8 SSE 6 7 3 4 1001.3 1001.2 0.0
24/06:00pm 32.2 30.7 9.1 24 13.1 S 7 13 4 7 1001.5 1001.4 0.0
24/05:30pm 30.1 27.8 10.6 30 11.2 SSW 13 17 7 9 1001.7 1001.6 0.0
24/05:00pm 29.4 26.8 11.9 34 10.2 SW 17 22 9 12 1001.8 1001.7 0.0
24/04:30pm 29.4 26.5 12.3 34 10.1 SW 19 28 10 15 1002.2 1002.1 0.0
24/04:00pm 29.4 26.3 12.3 34 10.0 SW 20 28 11 15 1002.5 1002.4 0.0
24/03:30pm 27.9 24.2 13.8 42 8.4 SW 26 32 14 17 1002.6 1002.5 0.0
24/03:00pm 29.7 27.0 13.5 37 9.7 SW 20 30 11 16 1002.8 1002.7 0.0
24/02:30pm 32.2 29.0 11.4 28 12.2 SW 19 26 10 14 1002.9 1002.8 0.0
24/02:00pm 33.7 30.3 9.0 22 14.0 W 17 22 9 12 1003.0 1002.9 0.0
24/01:30pm 33.8 28.9 8.4 21 14.3 NW 24 35 13 19 1003.3 1003.2 0.0
24/01:00pm 36.5 31.2 6.6 16 16.6 NNW 24 33 13 18 1003.5 1003.4 0.0
24/12:30pm 36.0 29.8 6.2 16 16.4 NNW 28 41 15 22 1003.7 1003.6 0.0
24/12:00pm 36.4 29.9 6.6 16 16.5 NNW 30 39 16 21 1003.5 1003.4 0.0
24/11:30am 36.5 31.2 6.6 16 16.6 N 24 35 13 19 1003.9 1003.8 0.0
24/11:00am 32.8 31.4 10.8 26 12.8 NNE 9 24 5 13 1004.4 1004.3 0.0
24/10:30am 29.2 28.5 11.3 33 10.3 NE 6 9 3 5 1004.4 1004.3 0.0
24/10:00am 27.0 27.0 12.3 40 8.5 ESE 4 9 2 5 1004.5 1004.4 0.0
24/09:30am 25.8 26.0 14.6 50 6.7 SE 7 9 4 5 1004.4 1004.3 0.0
24/09:00am 25.3 25.6 14.4 50 6.5 SE 6 9 3 5 1004.6 1004.5 0.0
24/08:30am 24.2 24.4 14.6 55 5.7 ESE 7 9 4 5 1004.6 1004.5 0.0
24/08:00am 23.9 23.9 13.7 53 6.0 SSE 6 11 3 6 1004.6 1004.5 0.0
24/07:30am 24.5 24.1 12.5 47 6.9 W 6 9 3 5 1004.6 1004.5 0.0
24/07:00am 23.3 19.9 13.8 55 5.6 SW 24 41 13 22 1004.7 1004.6 0.0
24/06:30am 23.0 22.8 14.8 60 4.9 ESE 9 13 5 7 1004.0 1003.9 0.0
24/06:00am 22.6 23.0 15.4 64 4.3 S 7 13 4 7 1004.1 1004.0 0.0
24/05:30am 24.5 23.7 12.8 48 6.8 NE 9 11 5 6 1003.7 1003.6 0.0
24/05:00am 23.6 23.3 15.4 60 4.9 NE 11 15 6 8 1003.4 1003.3 0.0
24/04:30am 21.9 21.6 17.3 75 2.8 ENE 15 15 8 8 1003.4 1003.3 0.0
24/04:00am 21.9 21.9 17.1 74 2.9 ENE 13 17 7 9 1003.6 1003.5 0.0
24/03:30am 22.3 21.8 16.8 71 3.4 ENE 15 20 8 11 1003.9 1003.8 0.0
24/03:00am 22.3 21.7 16.6 70 3.5 ENE 15 20 8 11 1004.2 1004.1 0.0
24/02:30am 22.5 21.8 16.3 68 3.8 ENE 15 20 8 11 1004.5 1004.4 0.0
24/02:00am 22.5 21.1 16.5 69 3.7 ENE 19 22 10 12 1004.8 1004.7 0.0
24/01:30am 21.9 21.5 17.1 74 3.0 ENE 15 19 8 10 1005.1 1005.0 0.0
24/01:00am 22.0 22.0 17.2 74 3.0 ENE 13 17 7 9 1005.5 1005.4 0.0
24/12:30am 22.2 21.6 16.7 71 3.4 NE 15 19 8 10 1005.9 1005.8 0.0
24/12:00am 22.8 21.2 16.4 67 3.9 ENE 20 28 11 15 1005.9 1005.8 0.0
 
Date/Time
CDT
Temp
°C
App
Temp
°C
Dew
Point
°C
Rel
Hum
%
Delta-T
°C
Wind Press
QNH
hPa
Press
MSL
hPa
Rain since
9am
mm
Dir  Spd
km/h
Gust
km/h
Spd
kts
Gust
kts
23/11:30pm 23.0 21.4 16.5 67 4.0 ENE 20 30 11 16 1006.3 1006.1 0.0
23/11:00pm 23.1 22.2 15.9 64 4.4 E 15 20 8 11 1006.6 1006.4 0.0
23/10:30pm 23.2 22.3 15.8 63 4.5 ENE 15 20 8 11 1006.5 1006.3 0.0
23/10:00pm 23.3 21.3 15.4 61 4.7 NE 20 26 11 14 1006.5 1006.3 0.0
23/09:30pm 23.3 21.9 15.6 62 4.7 NE 17 26 9 14 1006.5 1006.3 0.0
23/09:00pm 23.4 22.9 14.9 59 5.1 ENE 11 15 6 8 1006.8 1006.6 0.0
23/08:30pm 23.8 23.5 14.5 56 5.5 ENE 9 17 5 9 1006.8 1006.6 0.0
23/08:00pm 23.9 23.7 14.6 56 5.5 ENE 9 17 5 9 1006.8 1006.6 0.0
23/07:30pm 24.0 23.8 14.7 56 5.5 ENE 9 13 5 7 1006.9 1006.7 0.0
23/07:00pm 24.6 24.0 14.7 54 5.9 ENE 11 17 6 9 1006.9 1006.7 0.0
23/06:30pm 25.0 24.7 14.5 52 6.3 ENE 9 15 5 8 1006.9 1006.7 0.0
23/06:00pm 24.9 24.2 14.4 52 6.3 E 11 13 6 7 1007.1 1006.9 0.0
23/05:30pm 26.3 24.9 13.4 45 7.6 E 13 17 7 9 1007.3 1007.1 0.0
23/05:00pm 26.6 25.1 13.0 43 8.0 ESE 13 17 7 9 1007.3 1007.1 0.0
23/04:30pm 26.8 24.6 12.1 40 8.5 E 15 22 8 12 1007.5 1007.3 0.0
23/04:00pm 26.2 25.2 13.3 45 7.6 E 11 17 6 9 1007.7 1007.5 0.0
23/03:30pm 26.0 25.0 13.5 46 7.4 E 11 15 6 8 1007.8 1007.6 0.0
23/03:00pm 25.6 24.5 13.1 46 7.3 E 11 17 6 9 1008.2 1008.0 0.0
23/02:30pm 25.1 24.2 13.6 49 6.8 ESE 11 17 6 9 1008.4 1008.2 0.0
23/02:00pm 25.4 24.0 14.5 51 6.5 ESE 15 19 8 10 1008.9 1008.7 0.0
23/01:30pm 24.6 23.1 14.1 52 6.2 ESE 15 19 8 10 1009.0 1008.8 0.0
23/01:00pm 24.4 23.2 13.9 52 6.2 ESE 13 19 7 10 1009.2 1009.0 0.0
23/12:30pm 24.4 23.6 15.1 56 5.6 E 13 17 7 9 1009.5 1009.3 0.0
23/12:00pm 23.9 23.2 15.4 59 5.1 E 13 17 7 9 1009.6 1009.4 0.0
23/11:30am 23.8 23.0 16.1 62 4.7 E 15 19 8 10 1010.0 1009.8 0.0
23/11:00am 23.3 22.8 15.9 63 4.5 E 13 17 7 9 1010.0 1009.8 0.0
23/10:30am 22.9 22.4 16.0 65 4.2 E 13 17 7 9 1010.2 1010.0 0.0
23/10:00am 22.9 22.1 16.2 66 4.1 E 15 19 8 10 1010.4 1010.2 0.0
23/09:30am 22.6 22.3 16.4 68 3.8 E 13 17 7 9 1010.6 1010.4 0.0
23/09:00am 21.8 21.1 15.4 67 3.8 ENE 13 17 7 9 1010.1 1009.9 0.0
23/08:30am 21.0 19.7 14.9 68 3.6 ENE 15 20 8 11 1009.9 1009.7 0.0
23/08:00am 20.2 18.9 15.8 76 2.6 ENE 17 20 9 11 1009.9 1009.7 0.0
23/07:30am 19.3 18.3 16.5 84 1.7 ENE 17 22 9 12 1009.6 1009.4 0.0
23/07:00am 18.5 16.4 16.1 86 1.4 E 22 28 12 15 1009.4 1009.2 0.0
23/06:30am 18.2 16.3 15.8 86 1.4 E 20 26 11 14 1009.5 1009.3 0.0
23/06:00am 18.2 15.9 15.8 86 1.4 E 22 28 12 15 1009.1 1008.9 0.0
23/05:30am 18.2 15.6 15.8 86 1.4 E 24 30 13 16 1009.0 1008.8 0.0
23/05:00am 17.9 16.0 15.7 87 1.3 E 20 26 11 14 1009.0 1008.8 0.0
23/04:30am 18.1 16.3 16.1 88 1.2 ENE 20 26 11 14 1009.2 1009.0 0.0
23/04:00am 17.9 15.6 15.7 87 1.3 E 22 28 12 15 1009.4 1009.2 0.0
23/03:30am 17.7 14.9 15.3 86 1.4 E 24 28 13 15 1009.5 1009.3 0.0
23/03:00am 17.9 15.4 15.2 84 1.6 E 22 28 12 15 1009.6 1009.4 0.0
23/02:30am 18.0 15.0 14.9 82 1.8 E 24 28 13 15 1010.1 1009.9 0.0
23/02:00am 18.0 15.3 14.7 81 1.9 ESE 22 28 12 15 1010.4 1010.2 0.0
23/01:30am 18.1 15.4 14.6 80 2.0 E 22 28 12 15 1010.6 1010.4 0.0
23/01:00am 18.1 15.4 14.6 80 2.0 E 22 28 12 15 1010.9 1010.7 0.0
23/12:30am 18.3 16.2 14.8 80 2.0 E 19 22 10 12 1011.3 1011.1 0.0
23/12:00am 18.4 16.0 14.5 78 2.3 E 20 24 11 13 1011.2 1011.0 0.0
 
Date/Time
CDT
Temp
°C
App
Temp
°C
Dew
Point
°C
Rel
Hum
%
Delta-T
°C
Wind Press
QNH
hPa
Press
MSL
hPa
Rain since
9am
mm
Dir  Spd
km/h
Gust
km/h
Spd
kts
Gust
kts
22/11:30pm 18.8 16.8 14.9 78 2.3 E 19 22 10 12 1011.4 1011.2 0.0
22/11:00pm 19.1 17.0 14.8 76 2.5 ESE 19 26 10 14 1011.4 1011.2 0.0
22/10:30pm 19.2 16.5 14.7 75 2.6 ESE 22 30 12 16 1011.4 1011.2 0.0
22/10:00pm 19.9 17.8 15.1 74 2.8 E 20 26 11 14 1011.4 1011.2 0.0
22/09:30pm 20.0 18.6 14.4 70 3.3 E 15 20 8 11 1011.5 1011.3 0.0
22/09:00pm 20.3 19.2 14.2 68 3.5 ENE 13 19 7 10 1011.6 1011.4 0.0
22/08:30pm 20.4 19.1 13.6 65 3.9 ENE 13 17 7 9 1011.4 1011.2 0.0
22/08:00pm 21.1 20.5 13.5 62 4.4 E 9 13 5 7 1011.3 1011.1 0.0
22/07:30pm 22.0 22.1 13.9 60 4.7 E 6 9 3 5 1011.3 1011.1 0.0
22/07:00pm 22.5 22.2 13.3 56 5.3 E 7 9 4 5 1011.1 1010.9 0.0
22/06:30pm 22.8 22.0 13.0 54 5.6 E 9 15 5 8 1010.9 1010.7 0.0
22/06:00pm 23.3 22.1 14.0 56 5.5 E 13 17 7 9 1010.7 1010.5 0.0
22/05:30pm 23.6 22.9 14.3 56 5.5 E 11 13 6 7 1011.0 1010.8 0.0
22/05:00pm 24.3 23.3 13.5 51 6.3 E 11 13 6 7 1011.1 1010.9 0.0
22/04:30pm 23.7 23.3 14.1 55 5.7 SSE 9 13 5 7 1011.2 1011.0 0.0
22/04:00pm 22.7 21.9 12.9 54 5.6 SSE 9 11 5 6 1011.6 1011.4 0.0
22/03:30pm 23.2 22.1 13.1 53 5.8 SSW 11 15 6 8 1011.8 1011.6 0.0
22/03:00pm 23.8 22.0 13.4 52 6.1 SW 15 20 8 11 1011.8 1011.6 0.0
22/02:30pm 24.7 23.4 13.6 50 6.5 SW 13 19 7 10 1011.8 1011.6 0.0
22/02:00pm 24.5 22.6 11.8 45 7.2 SW 13 19 7 10 1012.1 1011.9 0.0
22/01:30pm 24.7 22.4 9.0 37 8.5 SW 11 17 6 9 1012.2 1012.0 0.0
22/01:00pm 23.8 22.1 12.4 48 6.5 SSW 13 15 7 8 1012.4 1012.2 0.0
22/12:30pm 23.2 22.3 12.5 51 6.1 SSW 9 11 5 6 1012.4 1012.2 0.0
22/12:00pm 23.9 22.4 9.1 39 8.0 S 7 9 4 5 1012.5 1012.3 0.0
22/11:30am 22.8 21.5 9.9 44 7.0 SSE 7 9 4 5 1012.5 1012.3 0.0
22/11:00am 21.6 21.4 13.5 60 4.7 S 7 9 4 5 1012.7 1012.5 0.0
22/10:30am 21.6 21.1 13.8 61 4.5 S 9 11 5 6 1012.7 1012.5 0.0
22/10:00am 21.0 20.7 14.4 66 3.9 SSE 9 11 5 6 1012.6 1012.4 0.0
22/09:30am 20.6 20.2 13.1 62 4.3 SSE 7 9 4 5 1012.3 1012.1 0.0
22/09:00am 20.5 20.3 13.5 64 4.0 S 7 9 4 5 1012.4 1012.2 0.0
22/08:30am 19.7 19.3 12.5 63 4.0 S 6 7 3 4 1012.1 1011.9 0.0
22/08:00am 18.9 18.7 14.8 77 2.4 S 9 11 5 6 1012.0 1011.8 0.0
22/07:30am 18.3 18.5 14.8 80 2.0 S 7 9 4 5 1011.7 1011.5 0.0
22/07:00am 16.8 16.6 13.7 82 1.8 SSE 7 9 4 5 1011.3 1011.1 0.0
22/06:30am 16.7 16.4 13.4 81 1.9 S 7 9 4 5 1011.2 1011.0 0.0
22/06:00am 16.7 16.2 12.8 78 2.2 S 7 9 4 5 1011.0 1010.8 0.0
22/05:30am 16.7 16.4 12.7 77 2.2 S 6 7 3 4 1010.7 1010.5 0.0
22/05:00am 16.2 15.5 12.0 76 2.3 SSW 7 9 4 5 1010.7 1010.5 0.0
22/04:30am 16.7 17.5 12.5 76 2.3 CALM 0 0 0 0 1010.7 1010.5 0.0
22/04:00am 16.9 17.6 12.2 74 2.6 CALM 0 4 0 2 1010.5 1010.3 0.0
22/03:30am 16.8 17.3 11.5 71 2.9 CALM 0 0 0 0 1010.7 1010.5 0.0
22/03:00am 17.1 16.8 11.4 69 3.1 ENE 4 6 2 3 1010.5 1010.3 0.0
22/02:30am 17.3 16.6 11.3 68 3.3 NE 6 9 3 5 1010.7 1010.5 0.0
22/02:00am 18.0 17.3 12.0 68 3.3 ENE 7 9 4 5 1010.7 1010.5 0.0
22/01:30am 18.1 16.5 11.7 66 3.5 E 11 17 6 9 1010.8 1010.6 0.0
22/01:00am 18.3 15.9 11.4 64 3.8 E 15 19 8 10 1010.7 1010.5 0.0
22/12:30am 19.0 16.0 12.0 64 3.9 E 19 22 10 12 1010.7 1010.5 0.0
22/12:00am 19.1 17.4 13.5 70 3.2 ESE 15 19 8 10 1010.7 1010.5 0.0
 
Date/Time
CDT
Temp
°C
App
Temp
°C
Dew
Point
°C
Rel
Hum
%
Delta-T
°C
Wind Press
QNH
hPa
Press
MSL
hPa
Rain since
9am
mm
Dir  Spd
km/h
Gust
km/h
Spd
kts
Gust
kts
21/11:30pm 19.4 17.6 13.3 68 3.5 SE 15 17 8 9 1010.9 1010.7 0.0
21/11:00pm 19.8 17.8 12.6 63 4.1 SE 15 20 8 11 1011.2 1011.0 0.0
21/10:30pm 20.0 18.4 13.9 68 3.5 ESE 15 19 8 10 1011.3 1011.1 0.0
21/10:00pm 20.1 19.3 14.0 68 3.5 E 11 13 6 7 1011.2 1011.0 0.0
21/09:30pm 20.0 19.2 13.0 64 4.0 E 9 13 5 7 1011.2 1011.0 0.0
21/09:00pm 20.9 20.0 14.8 68 3.6 SSE 13 15 7 8 1011.4 1011.2 0.0
21/08:30pm 21.4 19.3 13.6 61 4.5 SSW 17 22 9 12 1011.1 1010.9 0.0
21/08:00pm 23.6 20.5 10.3 43 7.3 SW 17 22 9 12 1010.8 1010.6 0.0
21/07:30pm 24.0 20.9 10.3 42 7.6 SW 17 20 9 11 1010.6 1010.4 0.0

Other formats

Comma delimited format used in spreadsheet applications
http://www.bom.gov.au/fwo/IDS60801/IDS60801.95806.axf

JavaScript Object Notation format (JSON) in row-major order
http://www.bom.gov.au/fwo/IDS60801/IDS60801.95806.json

Data quality

Most of these data are generated automatically and are frequently updated. Quality checks on data are not normally performed. It is possible for incorrect values to appear. Refer to information at About Latest Weather Observations and please check the disclaimer before using these data.